Time;durP1;ratioP1;P1;durP2;ratioP2;P2;SDS_P1;SDS_P2;PMS_P1;PMS_P2;Temp;Humidity;BMP_temperature;BMP_pressure;BME280_temperature;BME280_humidity;BME280_pressure;Samples;Min_cycle;Max_cycle;Signal;HPM_P1;HPM_P2
2023/01/14 00:01:27;;;;;;;19.50;9.70;;;;;;;0.59;86.71;95918.48;110523;1276;22092;-68
2023/01/14 00:03:56;;;;;;;21.20;10.40;;;;;;;0.54;86.67;95918.01;110514;1276;23030;-68
2023/01/14 00:06:30;;;;;;;16.90;10.00;;;;;;;0.53;87.08;95916.95;110342;1276;22136;-68
2023/01/14 00:09:04;;;;;;;14.50;8.20;;;;;;;0.52;86.87;95918.14;110322;1276;22141;-68
2023/01/14 00:11:51;;;;;;;19.10;9.20;;;;;;;0.47;86.12;95911.94;110307;1276;22868;-68
2023/01/14 00:14:22;;;;;;;21.10;10.70;;;;;;;0.31;86.38;95913.27;110514;1276;22117;-68
2023/01/14 00:16:52;;;;;;;21.80;11.70;;;;;;;0.31;87.09;95914.32;110244;1276;22118;-68
2023/01/14 00:19:22;;;;;;;26.10;13.20;;;;;;;0.37;87.51;95917.06;110308;1276;22196;-68
2023/01/14 00:21:51;;;;;;;28.30;13.40;;;;;;;0.42;87.46;95921.86;110495;1276;22864;-68
2023/01/14 00:24:20;;;;;;;25.10;11.30;;;;;;;0.44;87.24;95926.77;110477;1271;22167;-68
2023/01/14 00:26:50;;;;;;;13.20;7.80;;;;;;;0.46;87.06;95927.68;110492;1276;22189;-68
2023/01/14 00:29:30;;;;;;;23.20;12.20;;;;;;;0.42;86.01;95928.80;110302;1276;22910;-68
2023/01/14 00:32:04;;;;;;;33.30;17.00;;;;;;;0.33;85.96;95929.42;110312;1263;22195;-68
2023/01/14 00:34:36;;;;;;;39.20;17.60;;;;;;;0.32;86.58;95930.61;110487;1276;22111;-68
2023/01/14 00:37:04;;;;;;;39.50;18.10;;;;;;;0.32;86.29;95937.17;110290;1276;22199;-68
2023/01/14 00:39:33;;;;;;;37.90;16.30;;;;;;;0.31;86.25;95942.54;110449;1276;22183;-68
2023/01/14 00:42:01;;;;;;;26.80;12.70;;;;;;;0.27;86.06;95942.92;110300;1276;23069;-68
2023/01/14 00:44:29;;;;;;;22.60;10.30;;;;;;;0.26;86.33;95947.05;110312;1276;22163;-68
2023/01/14 00:46:57;;;;;;;12.60;5.90;;;;;;;0.27;86.44;95950.20;110412;1276;22132;-68
2023/01/14 00:49:25;;;;;;;13.90;7.10;;;;;;;0.27;86.30;95945.18;110480;1276;22354;-68
2023/01/14 00:51:53;;;;;;;12.90;6.40;;;;;;;0.20;85.96;95938.58;110543;1276;22194;-68
2023/01/14 00:54:21;;;;;;;33.80;17.00;;;;;;;0.13;86.47;95940.31;110508;1276;22415;-69
2023/01/14 00:56:50;;;;;;;30.40;14.80;;;;;;;0.08;86.71;95940.86;110513;1276;22834;-68
2023/01/14 00:59:23;;;;;;;37.80;17.00;;;;;;;0.10;86.82;95939.89;110538;1276;22125;-68
2023/01/14 01:01:54;;;;;;;10.50;4.30;;;;;;;0.10;86.44;95936.60;110295;1276;22138;-68
2023/01/14 01:04:24;;;;;;;5.00;3.00;;;;;;;0.06;86.18;95938.39;110282;1276;22128;-68
2023/01/14 01:06:52;;;;;;;9.50;4.90;;;;;;;0.05;86.38;95934.39;110290;1276;22100;-68
2023/01/14 01:09:20;;;;;;;8.80;4.40;;;;;;;-0.00;86.43;95930.97;110540;1276;22126;-67
2023/01/14 01:11:48;;;;;;;8.50;4.30;;;;;;;-0.09;86.16;95935.05;110532;1276;22584;-68
2023/01/14 01:14:17;;;;;;;23.40;12.20;;;;;;;-0.16;86.28;95935.02;110505;1276;22111;-68
2023/01/14 01:16:45;;;;;;;9.10;4.80;;;;;;;-0.20;86.84;95935.09;110275;1276;22126;-68
2023/01/14 01:19:13;;;;;;;5.50;3.10;;;;;;;-0.19;86.83;95932.86;110514;1276;22224;-68
2023/01/14 01:21:45;;;;;;;4.70;3.00;;;;;;;-0.16;87.31;95936.07;110278;1276;23007;-68
2023/01/14 01:24:13;;;;;;;7.70;3.80;;;;;;;-0.14;86.97;95935.93;110276;1276;23092;-68
2023/01/14 01:26:41;;;;;;;7.10;3.80;;;;;;;-0.12;87.31;95934.27;110270;1276;22329;-68
2023/01/14 01:29:09;;;;;;;5.80;2.80;;;;;;;-0.06;87.28;95934.63;110283;1276;22937;-68
2023/01/14 01:31:37;;;;;;;12.60;5.50;;;;;;;-0.08;86.80;95937.30;110288;1276;22873;-68
2023/01/14 01:34:06;;;;;;;17.40;9.90;;;;;;;-0.13;87.49;95940.64;110474;1276;22910;-68
2023/01/14 01:36:35;;;;;;;33.40;15.00;;;;;;;-0.15;87.53;95943.34;110506;1276;22127;-68
2023/01/14 01:39:04;;;;;;;9.60;5.00;;;;;;;-0.11;87.19;95945.70;110510;1276;22119;-68
2023/01/14 01:41:33;;;;;;;5.70;3.50;;;;;;;-0.06;87.09;95941.70;110501;1276;22139;-68
2023/01/14 01:44:28;;;;;;;7.60;3.50;;;;;;;0.03;87.39;95934.67;110527;1276;22095;-68
2023/01/14 01:46:56;;;;;;;8.50;3.70;;;;;;;0.12;87.47;95930.59;110534;1276;22856;-68
2023/01/14 01:49:31;;;;;;;31.10;15.00;;;;;;;0.14;87.75;95933.59;110537;1276;22969;-68
2023/01/14 01:52:08;;;;;;;27.80;14.20;;;;;;;0.15;87.73;95936.92;110301;1261;22125;-68
2023/01/14 01:54:43;;;;;;;26.60;13.40;;;;;;;0.10;87.90;95931.94;110275;1276;22233;-68
2023/01/14 01:57:14;;;;;;;26.20;13.10;;;;;;;0.14;88.47;95934.45;110296;1276;22132;-68
2023/01/14 01:59:52;;;;;;;22.80;11.70;;;;;;;0.14;88.35;95932.56;110233;1276;23035;-68
2023/01/14 02:02:21;;;;;;;16.00;8.30;;;;;;;0.10;88.38;95926.22;110293;1276;22114;-68
2023/01/14 02:04:49;;;;;;;13.70;7.80;;;;;;;0.05;88.67;95925.91;110513;1276;22100;-68
2023/01/14 02:07:23;;;;;;;24.50;13.30;;;;;;;0.02;88.82;95922.35;110240;1276;22142;-68
2023/01/14 02:09:58;;;;;;;22.80;13.50;;;;;;;0.03;88.78;95926.89;110297;1276;22217;-68
2023/01/14 02:12:56;;;;;;;18.00;10.40;;;;;;;0.11;89.36;95923.50;110221;1276;22304;-68
2023/01/14 02:15:24;;;;;;;18.90;9.90;;;;;;;0.22;89.32;95927.23;110513;1276;22133;-68
2023/01/14 02:18:12;;;;;;;10.80;6.40;;;;;;;0.28;89.07;95925.81;110498;1276;22221;-68
2023/01/14 02:20:46;;;;;;;8.60;4.80;;;;;;;0.34;88.68;95927.37;110520;1276;22163;-68
2023/01/14 02:23:57;;;;;;;11.20;6.40;;;;;;;0.34;88.09;95928.59;110268;1276;22149;-68
2023/01/14 02:26:58;;;;;;;12.60;7.20;;;;;;;0.34;87.79;95927.90;110467;1276;22554;-68
2023/01/14 02:30:01;;;;;;;13.50;7.30;;;;;;;0.37;88.04;95925.23;110316;1276;22142;-68
2023/01/14 02:32:49;;;;;;;9.80;6.00;;;;;;;0.44;87.82;95926.42;110302;1276;23003;-68
2023/01/14 02:35:21;;;;;;;11.40;5.90;;;;;;;0.43;87.39;95929.34;110295;1276;22777;-68
2023/01/14 02:38:02;;;;;;;9.00;5.50;;;;;;;0.37;87.14;95927.63;110489;1276;22829;-68
2023/01/14 02:40:46;;;;;;;7.80;4.90;;;;;;;0.36;87.42;95926.75;110520;1276;22273;-68
2023/01/14 02:46:32;;;;;;;10.30;4.40;;;;;;;0.49;87.18;95929.48;110300;1276;22138;-68
2023/01/14 02:49:07;;;;;;;10.00;4.80;;;;;;;0.48;87.19;95929.80;110256;1276;22838;-68
2023/01/14 02:51:37;;;;;;;11.20;5.60;;;;;;;0.44;87.25;95934.05;110267;1276;22137;-68
2023/01/14 02:54:06;;;;;;;7.30;4.70;;;;;;;0.44;87.21;95934.04;110266;1276;22178;-68
2023/01/14 02:56:35;;;;;;;10.00;5.20;;;;;;;0.40;86.61;95926.15;110281;1276;22129;-68
2023/01/14 02:59:38;;;;;;;7.40;4.80;;;;;;;0.34;86.67;95931.01;110288;1276;22635;-68
2023/01/14 03:02:32;;;;;;;8.60;4.70;;;;;;;0.28;86.56;95933.11;110510;1276;22470;-68
2023/01/14 03:05:17;;;;;;;5.50;3.80;;;;;;;0.20;87.09;95934.79;110320;1276;22191;-68
2023/01/14 03:08:33;;;;;;;6.00;4.00;;;;;;;0.22;87.44;95938.64;110308;1276;22135;-68
2023/01/14 03:11:07;;;;;;;10.80;6.80;;;;;;;0.27;87.28;95934.13;110071;1276;22165;-68
2023/01/14 03:13:59;;;;;;;14.10;8.50;;;;;;;0.25;86.98;95936.81;110512;1276;22238;-68
2023/01/14 03:16:31;;;;;;;15.70;10.20;;;;;;;0.29;87.50;95928.63;110290;1276;22176;-68
2023/01/14 03:19:09;;;;;;;12.30;7.90;;;;;;;0.35;87.62;95928.27;110491;1276;22939;-68
2023/01/14 03:21:43;;;;;;;10.60;6.10;;;;;;;0.40;87.47;95928.92;110249;1276;22273;-68
2023/01/14 03:24:22;;;;;;;13.10;7.10;;;;;;;0.41;86.78;95923.92;110480;1276;22845;-68
2023/01/14 03:26:53;;;;;;;10.80;6.00;;;;;;;0.38;86.84;95916.91;110492;1276;22265;-68
2023/01/14 03:29:34;;;;;;;11.60;6.20;;;;;;;0.41;86.92;95921.16;110427;1276;22141;-68
2023/01/14 03:32:07;;;;;;;14.50;8.70;;;;;;;0.33;86.65;95920.61;110241;1276;22105;-68
2023/01/14 03:34:42;;;;;;;13.60;7.60;;;;;;;0.34;87.13;95923.05;110511;1263;22120;-68
2023/01/14 03:37:15;;;;;;;11.70;7.10;;;;;;;0.35;86.99;95922.04;110497;1276;22180;-68
2023/01/14 03:39:46;;;;;;;13.10;7.40;;;;;;;0.36;86.92;95921.90;110496;1276;22187;-68
2023/01/14 03:42:20;;;;;;;16.30;8.50;;;;;;;0.36;86.98;95926.92;110497;1276;22129;-68
2023/01/14 03:44:54;;;;;;;16.70;9.40;;;;;;;0.42;87.35;95924.64;110293;1276;22110;-68
2023/01/14 03:47:24;;;;;;;16.20;8.90;;;;;;;0.43;87.31;95925.19;110485;1276;22776;-68
2023/01/14 03:49:53;;;;;;;15.80;8.90;;;;;;;0.38;87.29;95925.39;110299;1276;22149;-68
2023/01/14 03:52:49;;;;;;;18.60;8.60;;;;;;;0.30;86.88;95923.80;110274;1276;22199;-68
2023/01/14 03:55:26;;;;;;;20.80;9.40;;;;;;;0.20;87.37;95925.79;110508;1276;22763;-68
2023/01/14 03:58:01;;;;;;;20.40;8.60;;;;;;;0.16;87.55;95924.30;110477;1276;22236;-68
2023/01/14 04:00:38;;;;;;;15.60;8.00;;;;;;;0.15;87.28;95925.48;110498;1276;22909;-68
2023/01/14 04:03:09;;;;;;;16.50;9.00;;;;;;;0.14;87.45;95919.23;110522;1276;22127;-68
2023/01/14 04:05:38;;;;;;;10.70;5.90;;;;;;;0.15;87.66;95923.42;110531;1276;22113;-67
2023/01/14 04:08:07;;;;;;;12.80;5.90;;;;;;;0.16;87.49;95925.35;110489;1276;22130;-68
2023/01/14 04:10:35;;;;;;;12.00;5.70;;;;;;;0.12;87.36;95918.84;110058;1276;577289;-68
2023/01/14 04:15:50;;;;;;;10.00;5.10;;;;;;;0.01;87.31;95920.60;110498;1276;22144;-68
2023/01/14 04:18:18;;;;;;;11.80;5.50;;;;;;;-0.06;87.31;95922.68;110519;1276;22112;-68
2023/01/14 04:20:46;;;;;;;10.00;5.20;;;;;;;-0.09;88.15;95924.52;110303;1276;22380;-68
2023/01/14 04:23:14;;;;;;;11.50;6.30;;;;;;;-0.11;88.13;95931.86;110487;1276;22206;-68
2023/01/14 04:25:43;;;;;;;13.50;7.00;;;;;;;-0.17;87.84;95934.48;110511;1276;22096;-68
2023/01/14 04:28:11;;;;;;;11.80;6.40;;;;;;;-0.19;87.84;95936.16;110285;1276;22222;-68
2023/01/14 04:30:41;;;;;;;8.50;5.20;;;;;;;-0.13;88.50;95931.83;110489;1276;22773;-68
2023/01/14 04:33:09;;;;;;;8.20;4.70;;;;;;;-0.05;88.58;95934.98;110519;1276;22915;-68
2023/01/14 04:35:37;;;;;;;7.90;4.50;;;;;;;-0.01;88.22;95930.25;110481;1276;22741;-68
2023/01/14 04:38:06;;;;;;;8.10;4.30;;;;;;;0.08;88.63;95930.16;110500;1276;22875;-68
2023/01/14 04:40:33;;;;;;;8.30;4.20;;;;;;;0.19;88.69;95930.27;110494;1276;22168;-68
2023/01/14 04:43:02;;;;;;;11.60;4.70;;;;;;;0.24;88.18;95932.98;110487;1276;23106;-68
2023/01/14 04:45:30;;;;;;;10.40;5.50;;;;;;;0.25;87.92;95939.40;110474;1276;22135;-68
2023/01/14 04:47:58;;;;;;;8.90;5.10;;;;;;;0.25;87.95;95940.80;110458;1276;22349;-68
2023/01/14 04:50:34;;;;;;;6.10;3.80;;;;;;;0.27;88.03;95938.95;110486;1276;22185;-68
2023/01/14 04:53:06;;;;;;;10.40;5.80;;;;;;;0.24;87.40;95945.11;110305;1276;22284;-68
2023/01/14 04:55:37;;;;;;;17.70;8.40;;;;;;;0.18;87.48;95947.02;110308;1276;22313;-68
2023/01/14 04:58:07;;;;;;;14.40;7.50;;;;;;;0.13;87.48;95946.70;110288;1276;22205;-68
2023/01/14 05:00:36;;;;;;;8.80;4.60;;;;;;;0.05;87.06;95949.45;110470;1276;22131;-68
2023/01/14 05:03:06;;;;;;;9.30;5.40;;;;;;;0.04;87.52;95950.27;110292;1276;23051;-68
2023/01/14 05:05:36;;;;;;;17.90;9.80;;;;;;;-0.05;87.89;95949.86;110296;1276;22209;-68
2023/01/14 05:08:05;;;;;;;24.20;12.40;;;;;;;-0.16;88.45;95947.99;110321;1276;22132;-68
2023/01/14 05:10:34;;;;;;;36.00;16.60;;;;;;;-0.24;88.79;95951.73;110295;1276;22104;-68
2023/01/14 05:13:02;;;;;;;49.70;22.40;;;;;;;-0.24;88.79;95960.37;110488;1276;22198;-68
2023/01/14 05:15:38;;;;;;;47.50;23.00;;;;;;;-0.25;89.29;95954.13;110486;1276;22328;-68
2023/01/14 05:18:08;;;;;;;38.90;20.00;;;;;;;-0.33;89.69;95943.35;110493;1276;23107;-68
2023/01/14 05:20:37;;;;;;;41.10;21.30;;;;;;;-0.38;90.06;95941.66;110503;1276;22213;-68
2023/01/14 05:23:10;;;;;;;34.90;20.10;;;;;;;-0.33;90.07;95945.26;110477;1276;22157;-68
2023/01/14 05:25:39;;;;;;;63.30;29.90;;;;;;;-0.28;89.86;95946.45;110463;1276;22057;-68
2023/01/14 05:28:11;;;;;;;51.10;26.40;;;;;;;-0.26;89.79;95948.05;110499;1276;22302;-67
2023/01/14 05:30:40;;;;;;;46.20;22.90;;;;;;;-0.21;89.63;95949.05;110484;1276;22843;-68
2023/01/14 05:33:08;;;;;;;42.30;21.10;;;;;;;-0.18;89.71;95949.13;110458;1276;22966;-68
2023/01/14 05:35:37;;;;;;;40.40;19.80;;;;;;;-0.12;89.65;95942.56;110310;1276;22137;-68
2023/01/14 05:38:06;;;;;;;28.90;15.50;;;;;;;-0.07;89.51;95940.81;110506;1276;22334;-68
2023/01/14 05:40:35;;;;;;;19.20;10.80;;;;;;;-0.08;88.88;95942.86;110481;1276;22253;-67
2023/01/14 05:45:54;;;;;;;27.80;13.90;;;;;;;-0.09;89.23;95943.35;110284;1276;22125;-68
2023/01/14 05:48:24;;;;;;;22.20;12.90;;;;;;;-0.08;89.29;95949.06;110442;1276;22140;-68
2023/01/14 05:50:55;;;;;;;13.50;8.00;;;;;;;-0.07;89.52;95941.50;110488;1276;22332;-68
2023/01/14 05:53:24;;;;;;;19.60;11.10;;;;;;;-0.07;89.15;95946.52;110316;1276;22284;-68
2023/01/14 05:55:53;;;;;;;18.90;10.10;;;;;;;-0.04;89.09;95947.11;110419;1276;22151;-68
2023/01/14 05:58:23;;;;;;;19.00;10.10;;;;;;;-0.05;88.98;95947.61;110335;1276;22886;-68
2023/01/14 06:06:32;;;;;;;20.40;11.00;;;;;;;-0.11;88.90;95949.36;110479;1276;22366;-68
2023/01/14 06:09:06;;;;;;;22.40;11.90;;;;;;;-0.18;89.13;95952.77;110416;1276;22866;-68
2023/01/14 06:11:35;;;;;;;21.40;12.30;;;;;;;-0.20;88.93;95953.92;110501;1276;22113;-68
2023/01/14 06:14:03;;;;;;;10.30;5.70;;;;;;;-0.19;89.24;95955.84;110473;1276;22135;-68
2023/01/14 06:16:39;;;;;;;10.30;5.60;;;;;;;-0.14;89.48;95960.13;110472;1276;22903;-68
2023/01/14 06:19:12;;;;;;;9.20;4.40;;;;;;;-0.10;89.57;95960.27;110490;1276;22275;-68
2023/01/14 06:21:41;;;;;;;7.80;4.30;;;;;;;-0.05;89.71;95962.46;110460;1276;22157;-68
2023/01/14 06:24:09;;;;;;;12.30;7.40;;;;;;;-0.02;89.58;95969.65;110474;1276;22158;-68
2023/01/14 06:26:37;;;;;;;9.00;5.60;;;;;;;-0.02;89.33;95970.87;110480;1276;22197;-68
2023/01/14 06:29:11;;;;;;;7.40;3.70;;;;;;;-0.01;89.29;95971.59;110476;1268;22139;-68
2023/01/14 06:31:40;;;;;;;7.10;4.20;;;;;;;-0.01;89.13;95976.79;110352;1276;22829;-67
2023/01/14 06:34:09;;;;;;;5.00;3.80;;;;;;;-0.04;88.81;95970.98;110470;1276;22126;-68
2023/01/14 06:36:37;;;;;;;11.60;7.10;;;;;;;-0.09;88.81;95977.07;110479;1276;22182;-68
2023/01/14 06:39:06;;;;;;;32.50;19.60;;;;;;;-0.14;88.42;95983.31;110433;1276;22137;-68
2023/01/14 06:41:34;;;;;;;39.20;21.00;;;;;;;-0.26;87.96;95985.21;110446;1276;23152;-68
2023/01/14 06:44:03;;;;;;;21.70;13.50;;;;;;;-0.35;87.98;95987.71;110448;1276;22152;-68
2023/01/14 06:46:31;;;;;;;48.40;25.70;;;;;;;-0.40;88.57;95981.66;110479;1276;22103;-68
2023/01/14 06:48:59;;;;;;;49.10;28.00;;;;;;;-0.45;89.58;95980.52;110467;1276;22140;-68
2023/01/14 06:51:28;;;;;;;12.40;5.50;;;;;;;-0.46;89.50;95985.83;110441;1276;22118;-68
2023/01/14 06:53:56;;;;;;;5.80;3.60;;;;;;;-0.44;89.39;95984.68;110459;1276;22128;-68
2023/01/14 06:56:24;;;;;;;7.30;4.20;;;;;;;-0.44;89.37;95982.79;110462;1276;22917;-68
2023/01/14 06:58:52;;;;;;;6.50;4.20;;;;;;;-0.44;89.43;95987.45;110415;1276;23029;-68
2023/01/14 07:01:21;;;;;;;4.50;2.60;;;;;;;-0.50;88.82;95987.80;110439;1276;22164;-68
2023/01/14 07:03:50;;;;;;;5.20;2.30;;;;;;;-0.57;88.69;95986.00;110431;1276;23165;-68
2023/01/14 07:06:18;;;;;;;4.90;2.50;;;;;;;-0.55;89.52;95987.48;110464;1276;22124;-68
2023/01/14 07:08:47;;;;;;;4.50;2.80;;;;;;;-0.53;89.83;95988.08;110475;1276;22583;-68
2023/01/14 07:11:15;;;;;;;11.10;6.10;;;;;;;-0.47;90.10;95990.30;110499;1276;22172;-68
2023/01/14 07:13:43;;;;;;;7.10;5.10;;;;;;;-0.40;90.23;95987.38;110473;1276;22129;-67
2023/01/14 07:16:11;;;;;;;5.10;3.50;;;;;;;-0.42;89.66;95983.20;110457;1276;22188;-68
2023/01/14 07:18:39;;;;;;;8.10;4.60;;;;;;;-0.39;89.87;95984.49;110446;1276;22110;-67
2023/01/14 07:21:07;;;;;;;8.20;4.10;;;;;;;-0.32;90.05;95982.46;110433;1276;22182;-68
2023/01/14 07:23:35;;;;;;;6.60;3.80;;;;;;;-0.29;89.68;95981.67;110444;1276;22138;-68
2023/01/14 07:26:03;;;;;;;6.90;3.40;;;;;;;-0.34;89.14;95981.86;110458;1276;22999;-68
2023/01/14 07:28:34;;;;;;;19.40;10.50;;;;;;;-0.33;89.52;95988.45;110428;1276;22803;-68
2023/01/14 07:31:06;;;;;;;24.00;12.90;;;;;;;-0.32;89.74;95992.30;110457;1276;22192;-68
2023/01/14 07:33:35;;;;;;;33.30;18.60;;;;;;;-0.34;89.59;95996.40;110434;1276;22187;-68
2023/01/14 07:36:03;;;;;;;37.70;20.60;;;;;;;-0.36;89.68;95999.63;110438;1276;22109;-68
2023/01/14 07:38:32;;;;;;;28.90;16.90;;;;;;;-0.36;89.64;96006.69;110446;1276;22140;-67
2023/01/14 07:41:00;;;;;;;31.10;17.60;;;;;;;-0.40;89.60;96008.84;110436;1276;22953;-68
2023/01/14 07:43:28;;;;;;;30.10;17.90;;;;;;;-0.39;90.14;96010.75;110359;1276;22111;-68
2023/01/14 07:45:58;;;;;;;33.30;18.90;;;;;;;-0.38;90.16;96010.27;110426;1276;22786;-68
2023/01/14 07:48:28;;;;;;;31.10;18.10;;;;;;;-0.31;90.23;96015.48;110459;1276;22243;-68
2023/01/14 07:50:56;;;;;;;26.20;16.10;;;;;;;-0.28;90.14;96019.04;110451;1276;22168;-68
2023/01/14 07:53:24;;;;;;;25.40;16.00;;;;;;;-0.27;89.83;96023.06;110441;1276;22158;-67
2023/01/14 07:55:53;;;;;;;53.50;32.80;;;;;;;-0.26;89.68;96026.38;110422;1276;22148;-67
2023/01/14 07:58:23;;;;;;;629.30;328.20;;;;;;;-0.16;89.96;96028.38;110437;1276;22146;-68
2023/01/14 08:00:52;;;;;;;124.90;62.30;;;;;;;-0.08;90.16;96029.15;110439;1276;22870;-67
2023/01/14 08:15:39;;;;;;;21.10;13.20;;;;;;;0.93;87.23;96024.77;103517;1307;556350;-69
2023/01/14 08:18:08;;;;;;;94.10;54.20;;;;;;;0.91;87.12;96027.34;106565;1277;184802;-69
2023/01/14 08:20:37;;;;;;;92.50;54.80;;;;;;;0.90;88.09;96027.48;106759;1276;22530;-69
2023/01/14 08:23:06;;;;;;;104.90;61.50;;;;;;;0.91;88.56;96026.99;106599;1276;22748;-69
2023/01/14 08:25:34;;;;;;;98.20;58.70;;;;;;;0.94;88.67;96030.02;106680;1276;23899;-69
2023/01/14 08:28:02;;;;;;;94.20;57.20;;;;;;;1.00;88.97;96032.07;106708;1276;25501;-69
2023/01/14 08:30:31;;;;;;;100.70;57.40;;;;;;;1.07;89.00;96032.77;106733;1276;22726;-69
2023/01/14 08:33:00;;;;;;;89.80;52.90;;;;;;;1.14;88.98;96033.64;106810;1276;22821;-69
2023/01/14 08:35:28;;;;;;;83.40;49.00;;;;;;;1.21;88.49;96036.56;106645;1276;22685;-69
2023/01/14 08:37:56;;;;;;;77.20;45.80;;;;;;;1.24;88.46;96038.55;106330;1276;22551;-69
2023/01/14 08:40:24;;;;;;;77.10;45.40;;;;;;;1.32;88.62;96041.52;106620;1276;25337;-69
2023/01/14 08:42:54;;;;;;;61.40;38.00;;;;;;;1.39;88.36;96042.73;106719;1276;22533;-69
2023/01/14 08:45:22;;;;;;;44.80;26.00;;;;;;;1.46;88.23;96047.23;106814;1277;22526;-69
2023/01/14 08:47:50;;;;;;;49.50;34.10;;;;;;;1.57;87.97;96048.53;106767;1276;22542;-69
2023/01/14 08:50:20;;;;;;;49.10;37.30;;;;;;;1.62;87.56;96051.08;106604;1276;22539;-69
2023/01/14 08:52:48;;;;;;;44.00;30.10;;;;;;;1.68;87.10;96053.98;106417;1276;22547;-69
2023/01/14 08:55:16;;;;;;;34.50;21.50;;;;;;;1.79;87.15;96054.57;106386;1276;22656;-69
2023/01/14 08:57:44;;;;;;;37.70;24.70;;;;;;;1.97;87.46;96050.83;106631;1277;25496;-69
2023/01/14 09:00:14;;;;;;;39.40;24.90;;;;;;;2.21;87.74;96050.80;106645;1276;22533;-69
2023/01/14 09:02:42;;;;;;;31.50;20.50;;;;;;;2.41;86.22;96048.61;106413;1276;25188;-69
2023/01/14 09:05:10;;;;;;;35.70;23.40;;;;;;;2.69;86.53;96041.70;106608;1276;24223;-69
2023/01/14 09:18:48;;;;;;;25.40;14.40;;;;;;;3.53;83.08;96029.76;106427;1277;24713;-68
2023/01/14 09:21:16;;;;;;;27.60;18.30;;;;;;;3.57;83.74;96031.02;106363;1277;22526;-69
2023/01/14 09:23:44;;;;;;;36.40;23.20;;;;;;;3.69;84.16;96025.81;106453;1278;22773;-68
2023/01/14 09:26:13;;;;;;;23.90;15.20;;;;;;;3.81;84.00;96025.12;106445;1278;25230;-69
2023/01/14 09:28:41;;;;;;;21.90;14.10;;;;;;;3.97;84.38;96019.60;106324;1278;25507;-69
2023/01/14 09:31:10;;;;;;;21.70;14.00;;;;;;;4.12;84.27;96019.81;106242;1278;24249;-69
2023/01/14 09:33:38;;;;;;;19.40;13.10;;;;;;;4.27;84.22;96017.55;106510;1278;24405;-69
2023/01/14 09:36:07;;;;;;;22.40;14.90;;;;;;;4.37;83.47;96014.55;106627;1278;22584;-69
2023/01/14 09:38:37;;;;;;;16.00;11.40;;;;;;;4.46;83.06;96009.95;106333;1277;25880;-69
2023/01/14 09:41:07;;;;;;;12.70;9.20;;;;;;;4.59;83.50;96005.76;106655;1278;22633;-69
2023/01/14 09:43:40;;;;;;;15.50;10.20;;;;;;;4.71;83.16;96002.57;106764;1277;22530;-69
2023/01/14 09:46:10;;;;;;;14.00;9.70;;;;;;;4.83;83.24;95995.88;106279;1277;22653;-69
2023/01/14 09:48:39;;;;;;;19.50;11.90;;;;;;;4.93;82.96;96001.39;106486;1278;22707;-69
2023/01/14 09:51:46;;;;;;;19.00;12.60;;;;;;;5.03;82.11;95997.65;106533;1278;22532;-69
2023/01/14 09:54:38;;;;;;;16.00;10.90;;;;;;;5.10;81.58;95995.62;106480;1277;22604;-69
2023/01/14 09:57:38;;;;;;;15.00;9.40;;;;;;;5.17;81.39;95997.42;106564;1277;22623;-69
2023/01/14 10:00:22;;;;;;;14.20;10.10;;;;;;;5.20;81.53;95997.45;106498;1277;22940;-69
2023/01/14 10:03:15;;;;;;;14.80;9.50;;;;;;;5.24;81.17;95992.80;106494;1278;22556;-69
2023/01/14 10:05:53;;;;;;;15.60;10.50;;;;;;;5.26;81.11;95991.77;106468;1278;22521;-69
2023/01/14 10:08:24;;;;;;;16.10;10.50;;;;;;;5.25;80.62;95991.75;106423;1278;25361;-69
2023/01/14 10:10:54;;;;;;;12.40;9.00;;;;;;;5.23;80.07;95987.70;106531;1278;22689;-69
2023/01/14 10:13:30;;;;;;;11.70;8.50;;;;;;;5.21;80.27;95987.70;106495;1278;22701;-69
2023/01/14 10:16:03;;;;;;;11.80;8.70;;;;;;;5.20;80.04;95985.77;106560;1277;22535;-69
2023/01/14 10:18:45;;;;;;;15.00;8.80;;;;;;;5.17;79.98;95989.06;106663;1254;24202;-69
2023/01/14 10:21:27;;;;;;;14.00;9.10;;;;;;;5.13;79.34;95990.42;106611;1277;22629;-69
2023/01/14 10:23:55;;;;;;;13.60;9.10;;;;;;;5.10;79.68;95988.81;106644;1277;24231;-69
2023/01/14 10:26:31;;;;;;;14.20;9.20;;;;;;;5.01;79.19;95986.30;106588;1277;25361;-69
2023/01/14 10:29:11;;;;;;;12.70;9.30;;;;;;;4.94;79.24;95985.02;106552;1277;22535;-69
2023/01/14 10:31:45;;;;;;;17.30;11.10;;;;;;;4.88;79.67;95983.05;106511;1277;24239;-69
2023/01/14 10:34:25;;;;;;;;;;;;;;;4.85;79.97;95981.09;106589;1277;23733;-69
2023/01/14 10:36:54;;;;;;;24.80;12.80;;;;;;;4.82;79.95;95982.80;106600;1277;22531;-69
2023/01/14 10:39:22;;;;;;;20.30;11.40;;;;;;;4.76;79.73;95980.84;106683;1277;22535;-69
2023/01/14 10:41:51;;;;;;;24.70;14.40;;;;;;;4.70;79.59;95977.27;106640;1277;23896;-69
2023/01/14 10:44:44;;;;;;;26.00;14.70;;;;;;;4.65;79.95;95982.30;106333;1277;22532;-69
2023/01/14 10:47:18;;;;;;;11.60;8.50;;;;;;;4.62;80.10;95978.95;106546;1277;25347;-69
2023/01/14 10:50:01;;;;;;;17.50;11.50;;;;;;;4.57;79.93;95980.98;106627;1277;24259;-69
2023/01/14 10:52:33;;;;;;;16.30;10.90;;;;;;;4.58;80.19;95978.20;106515;1277;22537;-69
2023/01/14 10:55:10;;;;;;;19.60;12.30;;;;;;;4.57;80.21;95980.64;106483;1277;22534;-69
2023/01/14 10:57:58;;;;;;;27.80;15.90;;;;;;;4.59;80.52;95981.70;106524;1277;22671;-69
2023/01/14 11:00:36;;;;;;;;;;;;;;;4.62;80.90;95982.27;106831;1277;22513;-69
2023/01/14 11:03:09;;;;;;;20.60;13.30;;;;;;;4.66;80.89;95983.01;106756;1277;22776;-69
2023/01/14 11:05:41;;;;;;;23.70;14.90;;;;;;;4.71;80.83;95977.83;106688;1277;22523;-70
2023/01/14 11:08:37;;;;;;;19.80;12.90;;;;;;;4.75;80.87;95978.91;106618;1277;24348;-69
2023/01/14 11:11:09;;;;;;;13.00;10.00;;;;;;;4.78;80.62;95979.28;106615;1277;25346;-69
2023/01/14 11:13:48;;;;;;;16.40;11.20;;;;;;;4.76;79.98;95976.48;106683;1277;24205;-69
2023/01/14 11:16:25;;;;;;;14.60;9.90;;;;;;;4.73;79.97;95972.98;106567;1277;25174;-69
2023/01/14 11:19:21;;;;;;;17.60;10.00;;;;;;;4.68;79.50;95974.64;106568;1277;25306;-69
2023/01/14 11:21:53;;;;;;;19.10;11.90;;;;;;;4.66;79.72;95974.81;106657;1277;22533;-69
2023/01/14 11:24:35;;;;;;;17.70;10.80;;;;;;;4.63;79.52;95977.91;106504;1277;22523;-69
2023/01/14 11:27:17;;;;;;;18.90;12.30;;;;;;;4.61;79.77;95973.36;106621;1277;22549;-69
2023/01/14 11:29:59;;;;;;;19.70;12.10;;;;;;;4.63;80.06;95964.48;106463;1277;25505;-69
2023/01/14 11:32:35;;;;;;;18.40;12.00;;;;;;;4.66;79.83;95965.56;106491;1277;22576;-69
2023/01/14 11:35:18;;;;;;;13.10;9.70;;;;;;;4.67;79.82;95968.02;106588;1277;24202;-69
2023/01/14 11:37:48;;;;;;;15.30;9.70;;;;;;;4.66;79.35;95970.45;106600;1277;24380;-69
2023/01/14 11:41:28;;;;;;;15.50;10.00;;;;;;;4.64;79.42;95970.61;106515;1277;23562;-69
2023/01/14 11:43:14;;;;;;;15.70;10.60;;;;;;;4.67;79.76;95969.41;106627;1277;24286;-69
2023/01/14 11:45:42;;;;;;;14.40;10.30;;;;;;;4.71;80.01;95968.41;106554;1277;22520;-69
2023/01/14 11:48:28;;;;;;;15.60;9.90;;;;;;;4.76;79.82;95974.37;106578;1277;24235;-69
2023/01/14 11:51:04;;;;;;;13.10;9.00;;;;;;;4.77;79.41;95970.21;106549;1277;25488;-69
2023/01/14 11:53:44;;;;;;;13.60;9.20;;;;;;;4.76;79.21;95971.08;106555;1277;24675;-69
2023/01/14 11:56:22;;;;;;;15.30;11.10;;;;;;;4.78;79.34;95966.91;106593;1277;22593;-69
2023/01/14 11:58:50;;;;;;;15.70;10.00;;;;;;;4.81;79.32;95958.23;106487;1277;24197;-69
2023/01/14 12:01:22;;;;;;;15.80;10.40;;;;;;;4.83;79.12;95957.36;106554;1266;22521;-69
2023/01/14 12:04:16;;;;;;;14.10;9.90;;;;;;;4.89;79.28;95957.27;106644;1277;23592;-69
2023/01/14 12:06:47;;;;;;;18.60;13.50;;;;;;;4.93;78.92;95960.42;106579;1277;25276;-69
2023/01/14 12:09:27;;;;;;;18.00;13.30;;;;;;;4.96;78.70;95962.38;106520;1277;22575;-69
2023/01/14 12:12:01;;;;;;;17.60;11.60;;;;;;;4.97;78.65;95962.22;106501;1277;22534;-69
2023/01/14 12:17:45;;;;;;;13.00;8.90;;;;;;;5.07;78.31;95961.60;106576;1277;23929;-69
2023/01/14 12:20:15;;;;;;;14.00;9.80;;;;;;;5.10;77.93;95961.63;106578;1276;22526;-69
2023/01/14 12:22:47;;;;;;;20.10;14.00;;;;;;;5.13;78.05;95960.59;106602;1277;22520;-69
2023/01/14 12:25:30;;;;;;;14.10;9.10;;;;;;;5.17;78.00;95960.82;106671;1277;22535;-69
2023/01/14 12:28:09;;;;;;;10.30;6.90;;;;;;;5.19;77.55;95962.75;106503;1277;22650;-69